South Fork, PA

8:27 PM EST on December 27, 2014 (GMT -0500)
Indiana County-Stewart | Change Station
CLOSE
Current Station
Airport
Location: Indiana,
Elevation: 1407 ft
Nearby Weather Stations

Elev 1407 ft 40.63 °N, 79.11 °W | Updated 12 minutes ago

Partly Cloudy
Partly Cloudy
52 °F
Feels Like 52 °F
N
5
Wind Variable Wind from WSW

Today
High -- | Low -- °F
--% Chance of Precip.
Yesterday
High -- | Low -- °F
Precip. -- in
7:37 AM 4:55 PM
Waxing Crescent, 42% visible
Pressure 30.10 in
Visibility 10.0 miles
Clouds Scattered Clouds 4300 ft
Overcast 5500 ft
Dew Point 32 °F
Humidity 47%
Rainfall 0.00 in
Snow Depth Not available.
UV 0 out of 12
Pollen .10 out of 12
Air Quality Not available.
Flu Activity Not available.
METAR KIDI 280115Z AUTO 24004KT 10SM SCT043 OVC055 11/00 A3010 RMK A01

More Conditions Fewer Conditions

Pressure 30.10 in
Visibility 10.0 miles
Clouds Scattered Clouds 4300 ft
Overcast 5500 ft
Dew Point 32 °F
Humidity 47%
Rainfall 0.00 in
Snow Depth Not available.
UV 0 out of 12
Pollen .10 out of 12
Air Quality Not available.
Flu Activity Not available.
METAR KIDI 280115Z AUTO 24004KT 10SM SCT043 OVC055 11/00 A3010 RMK A01

More Conditions Fewer Conditions

10-Day Weather Forecast

Almanac

Astronomy

Dec. 27, 2014 Rise Set
Actual Time
Civil Twilight
Nautical Twilight
Astronomical Twilight
Moon
Length of Visible Light
Length of Day
Tomorrow will be .
, % of the Moon is Illuminated

Today's Extremes

State Highs State Lows

Community

WunderPhotos

Upload Photos

1,781,120 photos uploaded!

WunderBlogs® & News

Nearby

Air Quality

  Air Quality AQ Index Pollutant
Not available.

Snow Depth

Station Depth Elevation

Earthquake Activity

City Distance Mag. Time & Date
Minimum magnitude displayed is 2.5.

Coastal Water Temperatures

Place Temperature

Nearby Weather Stations